Time;durP1;ratioP1;P1;durP2;ratioP2;P2;SDS_P1;SDS_P2;PMS_P1;PMS_P2;Temp;Humidity;BMP_temperature;BMP_pressure;BME280_temperature;BME280_humidity;BME280_pressure;Samples;Min_cycle;Max_cycle;Signal;HPM_P1;HPM_P2
2023/10/16 00:02:22;;;;;;;;;;;;;;;15.63;100.00;99792.88;5021161;28;20275;-74
2023/10/16 00:04:48;;;;;;;;;;;;;;;15.61;100.00;99797.53;5026989;28;19921;-74
2023/10/16 00:07:15;;;;;;;;;;;;;;;15.58;100.00;99800.53;5025524;28;19929;-74
2023/10/16 00:09:41;;;;;;;;;;;;;;;15.49;100.00;99793.53;5026055;28;19964;-74
2023/10/16 00:12:09;;;;;;;;;;;;;;;15.49;100.00;99798.88;5023696;28;20003;-74
2023/10/16 00:14:35;;;;;;;;;;;;;;;15.49;100.00;99793.53;5026921;28;19925;-74
2023/10/16 00:17:08;;;;;;;;;;;;;;;15.43;100.00;99796.88;5023189;28;19925;-74
2023/10/16 00:19:37;;;;;;;;;;;;;;;15.40;100.00;99799.84;5023348;28;20000;-74
2023/10/16 00:22:10;;;;;;;;;;;;;;;15.34;100.00;99797.88;5023268;28;20012;-75
2023/10/16 00:24:36;;;;;;;;;;;;;;;15.27;100.00;99804.84;5027053;28;19917;-75
2023/10/16 00:27:02;;;;;;;;;;;;;;;15.25;100.00;99796.22;5022472;28;20612;-75
2023/10/16 00:29:35;;;;;;;;;;;;;;;15.19;100.00;99810.19;5009091;28;19932;-73
2023/10/16 00:32:02;;;;;;;;;;;;;;;15.18;100.00;99805.84;5029420;28;20087;-75
2023/10/16 00:34:28;;;;;;;;;;;;;;;15.18;100.00;99805.84;5026551;28;19921;-75
2023/10/16 00:36:54;;;;;;;;;;;;;;;15.15;100.00;99812.31;5028772;28;20169;-74
2023/10/16 00:39:20;;;;;;;;;;;;;;;15.07;100.00;99810.50;5024450;28;20349;-75
2023/10/16 00:41:46;;;;;;;;;;;;;;;15.05;100.00;99812.50;5024113;28;19928;-75
2023/10/16 00:44:14;;;;;;;;;;;;;;;15.06;100.00;99808.84;5025605;28;19921;-75
2023/10/16 00:46:44;;;;;;;;;;;;;;;15.03;100.00;99806.50;5022834;28;19957;-76
2023/10/16 00:49:12;;;;;;;;;;;;;;;15.02;100.00;99812.00;5025851;28;19974;-75
2023/10/16 00:51:39;;;;;;;;;;;;;;;15.01;100.00;99818.31;5011429;28;19947;-75
2023/10/16 00:54:08;;;;;;;;;;;;;;;14.99;100.00;99813.16;5022860;28;20348;-75
2023/10/16 00:56:36;;;;;;;;;;;;;;;14.88;100.00;99800.19;5022433;28;20304;-75
2023/10/16 00:59:04;;;;;;;;;;;;;;;14.91;100.00;99806.97;5023668;28;20377;-75
2023/10/16 01:01:31;;;;;;;;;;;;;;;14.87;100.00;99810.97;5020559;28;19929;-76
2023/10/16 01:03:57;;;;;;;;;;;;;;;14.86;100.00;99810.13;5023646;28;19921;-75
2023/10/16 01:06:36;;;;;;;;;;;;;;;14.83;100.00;99817.63;5024098;28;20312;-75
2023/10/16 01:09:02;;;;;;;;;;;;;;;14.86;100.00;99817.28;5022571;28;19921;-75
2023/10/16 01:11:29;;;;;;;;;;;;;;;14.75;100.00;99811.28;5026061;28;19975;-74
2023/10/16 01:13:55;;;;;;;;;;;;;;;14.78;100.00;99815.44;5022959;28;20320;-75
2023/10/16 01:16:21;;;;;;;;;;;;;;;14.85;100.00;99815.59;5024945;28;19925;-74
2023/10/16 01:18:46;;;;;;;;;;;;;;;14.76;100.00;99817.44;5009683;28;19928;-75
2023/10/16 01:21:15;;;;;;;;;;;;;;;14.74;100.00;99820.25;5023492;28;19921;-74
2023/10/16 01:23:44;;;;;;;;;;;;;;;14.74;100.00;99816.75;5024871;28;19921;-75
2023/10/16 01:26:10;;;;;;;;;;;;;;;14.81;100.00;99820.44;5022916;28;19921;-72
2023/10/16 01:28:36;;;;;;;;;;;;;;;14.76;100.00;99822.75;5025461;28;19975;-73
2023/10/16 01:31:01;;;;;;;;;;;;;;;14.73;100.00;99828.38;5022659;28;19925;-73
2023/10/16 01:33:27;;;;;;;;;;;;;;;14.74;100.00;99832.69;5025558;28;20280;-74
2023/10/16 01:35:52;;;;;;;;;;;;;;;14.72;100.00;99832.03;5021636;28;19932;-73
2023/10/16 01:38:18;;;;;;;;;;;;;;;14.77;100.00;99835.03;5024108;28;19972;-74
2023/10/16 01:43:28;;;;;;;;;;;;;;;14.80;100.00;99833.88;5024932;28;19929;-73
2023/10/16 01:45:55;;;;;;;;;;;;;;;14.79;100.00;99835.69;5006417;28;19983;-73
2023/10/16 01:48:21;;;;;;;;;;;;;;;14.83;100.00;99837.03;5005816;28;19921;-74
2023/10/16 01:50:50;;;;;;;;;;;;;;;14.89;100.00;99836.41;5005546;28;19921;-74
2023/10/16 01:53:20;;;;;;;;;;;;;;;14.89;100.00;99836.41;5023970;28;20023;-75
2023/10/16 01:55:51;;;;;;;;;;;;;;;14.95;100.00;99842.88;5022570;28;19926;-75
2023/10/16 01:58:17;;;;;;;;;;;;;;;14.96;100.00;99834.72;5023471;28;19917;-74
2023/10/16 02:00:45;;;;;;;;;;;;;;;14.98;100.00;99827.44;4997664;28;20452;-73
2023/10/16 02:03:12;;;;;;;;;;;;;;;15.00;100.00;99828.09;5013764;28;19967;-74
2023/10/16 02:05:41;;;;;;;;;;;;;;;15.01;100.00;99832.44;5013589;28;19917;-73
2023/10/16 02:08:07;;;;;;;;;;;;;;;15.03;100.00;99830.41;5013613;28;19948;-74
2023/10/16 02:10:32;;;;;;;;;;;;;;;15.06;100.00;99829.28;4995563;28;19922;-73
2023/10/16 02:12:58;;;;;;;;;;;;;;;15.07;100.00;99836.25;5008787;28;19921;-74
2023/10/16 02:15:23;;;;;;;;;;;;;;;15.06;100.00;99846.06;5013283;28;20281;-76
2023/10/16 02:17:49;;;;;;;;;;;;;;;15.09;100.00;99843.03;5013333;28;19936;-75
2023/10/16 02:20:17;;;;;;;;;;;;;;;15.11;100.00;99841.06;5011182;28;19987;-74
2023/10/16 02:22:45;;;;;;;;;;;;;;;15.15;100.00;99847.72;5010733;28;20274;-75
2023/10/16 02:25:11;;;;;;;;;;;;;;;15.13;100.00;99851.53;4995157;28;19976;-75
2023/10/16 02:27:37;;;;;;;;;;;;;;;15.08;100.00;99852.00;5012482;28;20015;-75
2023/10/16 02:35:49;;;;;;;;;;;;;;;15.18;100.00;99853.69;4988667;28;19976;-74
2023/10/16 02:38:23;;;;;;;;;;;;;;;15.23;100.00;99856.69;4995522;28;19921;-74
2023/10/16 02:40:50;;;;;;;;;;;;;;;15.21;100.00;99859.50;5012976;28;20417;-75
2023/10/16 02:43:20;;;;;;;;;;;;;;;15.18;100.00;99854.53;5013127;28;19921;-74
2023/10/16 02:45:47;;;;;;;;;;;;;;;15.21;100.00;99869.31;5013193;28;20269;-74
2023/10/16 02:48:18;;;;;;;;;;;;;;;15.23;100.00;99856.69;5013321;28;19973;-73
2023/10/16 02:50:56;;;;;;;;;;;;;;;15.22;100.00;99857.69;5012589;28;19921;-74
2023/10/16 02:53:23;;;;;;;;;;;;;;;15.21;100.00;99869.31;5013255;28;19965;-73
2023/10/16 02:55:53;;;;;;;;;;;;;;;15.25;100.00;99870.66;5012532;28;19931;-72
2023/10/16 02:58:22;;;;;;;;;;;;;;;15.27;100.00;99876.63;5012730;28;19921;-73
2023/10/16 03:00:53;;;;;;;;;;;;;;;15.28;100.00;99868.50;5016867;28;19921;-73
2023/10/16 03:03:19;;;;;;;;;;;;;;;15.29;100.00;99871.97;5022415;28;19922;-73
2023/10/16 03:05:45;;;;;;;;;;;;;;;15.29;100.00;99874.63;5021546;28;19917;-72
2023/10/16 03:08:12;;;;;;;;;;;;;;;15.24;100.00;99875.13;5020606;28;19921;-73
2023/10/16 03:10:40;;;;;;;;;;;;;;;15.22;100.00;99877.13;5022764;28;19921;-73
2023/10/16 03:13:06;;;;;;;;;;;;;;;15.17;100.00;99879.44;5019682;28;19921;-71
2023/10/16 03:15:41;;;;;;;;;;;;;;;15.18;100.00;99877.63;5019750;28;19922;-76
2023/10/16 03:18:16;;;;;;;;;;;;;;;15.21;100.00;99882.59;5004704;28;19997;-75
2023/10/16 03:20:43;;;;;;;;;;;;;;;15.21;100.00;99887.91;5021697;28;19963;-74
2023/10/16 03:23:08;;;;;;;;;;;;;;;15.18;100.00;99888.25;5020254;28;19928;-74
2023/10/16 03:28:08;;;;;;;;;;;;;;;15.24;100.00;99884.94;5019960;28;19921;-73
2023/10/16 03:30:34;;;;;;;;;;;;;;;15.28;100.00;99894.25;5022849;28;19925;-74
2023/10/16 03:32:59;;;;;;;;;;;;;;;15.30;100.00;99894.91;5019154;28;20270;-75
2023/10/16 03:35:29;;;;;;;;;;;;;;;15.32;100.00;99895.56;5020156;28;20308;-75
2023/10/16 03:37:58;;;;;;;;;;;;;;;15.29;100.00;99903.88;5021117;28;19925;-74
2023/10/16 03:40:30;;;;;;;;;;;;;;;15.30;100.00;99905.56;5020798;28;19929;-74
2023/10/16 03:42:55;;;;;;;;;;;;;;;15.29;100.00;99906.53;5021909;28;20438;-75
2023/10/16 03:45:21;;;;;;;;;;;;;;;15.24;100.00;99906.22;5020369;28;19921;-74
2023/10/16 03:48:08;;;;;;;;;;;;;;;15.27;100.00;99916.50;5020434;28;19921;-75
2023/10/16 03:50:38;;;;;;;;;;;;;;;15.33;100.00;99915.84;5019467;28;19922;-75
2023/10/16 03:53:03;;;;;;;;;;;;;;;15.33;100.00;99915.84;5018124;28;19917;-74
2023/10/16 03:55:31;;;;;;;;;;;;;;;15.36;100.00;99924.34;5022589;28;20288;-74
2023/10/16 03:57:57;;;;;;;;;;;;;;;15.35;100.00;99920.03;5018475;28;19928;-74
2023/10/16 04:01:07;;;;;;;;;;;;;;;15.34;100.00;99922.84;5022153;28;20016;-74
2023/10/16 04:03:11;;;;;;;;;;;;;;;15.36;100.00;99918.19;5012466;28;20415;-75
2023/10/16 04:05:45;;;;;;;;;;;;;;;15.39;100.00;99917.84;5024441;28;19925;-75
2023/10/16 04:08:14;;;;;;;;;;;;;;;15.40;100.00;99928.34;5022301;28;19930;-75
2023/10/16 04:10:43;;;;;;;;;;;;;;;15.44;100.00;99926.16;5025761;28;19928;-75
2023/10/16 04:13:09;;;;;;;;;;;;;;;15.43;100.00;99927.19;5023222;28;19924;-75
2023/10/16 04:18:09;;;;;;;;;;;;;;;15.45;100.00;99925.16;5022437;28;20407;-75
2023/10/16 04:20:44;;;;;;;;;;;;;;;15.40;100.00;99927.50;5005463;28;20408;-75
2023/10/16 04:23:29;;;;;;;;;;;;;;;15.28;100.00;99926.97;5019793;28;20401;-74
2023/10/16 04:34:24;;;;;;;;;;;;;;;15.31;100.00;99928.50;5026061;28;20337;-76
2023/10/16 04:48:47;;;;;;;;;;;;;;;15.22;100.00;99934.78;5019221;28;20435;-75
2023/10/16 04:50:37;;;;;;;;;;;;;;;15.25;100.00;99932.63;5011458;28;20455;-75
2023/10/16 05:06:15;;;;;;;;;;;;;;;15.26;100.00;99946.75;5023814;28;19929;-73
2023/10/16 05:16:48;;;;;;;;;;;;;;;15.15;100.00;99946.06;5026204;28;19960;-74
2023/10/16 06:16:35;;;;;;;;;;;;;;;14.98;100.00;99989.53;5006649;28;20246;-75
2023/10/16 06:19:07;;;;;;;;;;;;;;;14.97;100.00;99995.84;5006067;28;19929;-74
2023/10/16 06:21:32;;;;;;;;;;;;;;;15.00;100.00;100000.00;5020053;28;20302;-75
2023/10/16 06:23:58;;;;;;;;;;;;;;;14.99;100.00;99999.16;5022753;28;19947;-75
2023/10/16 06:26:27;;;;;;;;;;;;;;;14.93;100.00;99999.81;5021360;28;20009;-75
2023/10/16 06:28:52;;;;;;;;;;;;;;;14.94;100.00;100001.47;5021907;28;20332;-75
2023/10/16 06:31:22;;;;;;;;;;;;;;;14.97;100.00;100009.13;5025933;28;19921;-75
2023/10/16 06:33:58;;;;;;;;;;;;;;;14.87;100.00;100008.41;5021456;28;19921;-75
2023/10/16 06:36:24;;;;;;;;;;;;;;;14.83;100.00;100012.41;5020861;28;20243;-75
2023/10/16 06:38:52;;;;;;;;;;;;;;;14.86;100.00;100009.41;5003464;28;19983;-75
2023/10/16 06:41:18;;;;;;;;;;;;;;;14.86;100.00;100014.72;5004030;28;19967;-76
2023/10/16 06:43:47;;;;;;;;;;;;;;;14.85;100.00;100015.72;5020279;28;19921;-76
2023/10/16 06:46:17;;;;;;;;;;;;;;;14.89;100.00;100019.72;5024027;28;20012;-76
2023/10/16 06:48:43;;;;;;;;;;;;;;;14.94;100.00;100022.75;5023536;28;19921;-75
2023/10/16 06:51:15;;;;;;;;;;;;;;;14.98;100.00;100029.41;5023701;28;19931;-76
2023/10/16 06:53:40;;;;;;;;;;;;;;;14.97;100.00;100025.06;5018741;28;19929;-76
2023/10/16 06:56:05;;;;;;;;;;;;;;;14.96;100.00;100036.69;5019198;28;19921;-76
2023/10/16 06:58:34;;;;;;;;;;;;;;;15.00;100.00;100040.72;5024716;28;20480;-76
2023/10/16 07:01:01;;;;;;;;;;;;;;;15.00;100.00;100040.72;5024845;28;19930;-76
2023/10/16 07:03:28;;;;;;;;;;;;;;;14.98;100.00;100040.03;5038494;23;19920;-80
2023/10/16 07:05:53;;;;;;;;;;;;;;;14.97;100.00;100048.16;5025687;28;20032;-80
2023/10/16 07:08:19;;;;;;;;;;;;;;;14.97;100.00;100048.97;5018814;28;20005;-80
2023/10/16 07:10:49;;;;;;;;;;;;;;;14.99;100.00;100062.97;5013831;28;20369;-80
2023/10/16 07:13:27;;;;;;;;;;;;;;;15.00;100.00;100059.31;5004700;28;19937;-79
2023/10/16 07:15:56;;;;;;;;;;;;;;;14.94;100.00;100059.94;5010095;28;20052;-81
2023/10/16 07:18:24;;;;;;;;;;;;;;;14.97;100.00;100067.59;5012611;28;20321;-79
2023/10/16 07:20:59;;;;;;;;;;;;;;;14.97;100.00;100070.25;5004677;28;20075;-79
2023/10/16 07:23:25;;;;;;;;;;;;;;;14.92;100.00;100067.22;5002956;28;19959;-80
2023/10/16 07:25:57;;;;;;;;;;;;;;;14.91;100.00;100073.53;5002480;28;19929;-81
2023/10/16 07:28:23;;;;;;;;;;;;;;;14.88;100.00;100071.19;5000077;28;20015;-79
2023/10/16 07:30:49;;;;;;;;;;;;;;;14.87;100.00;100077.50;5003145;28;20525;-81
2023/10/16 07:33:14;;;;;;;;;;;;;;;14.82;100.00;100076.31;4984807;28;19935;-81
2023/10/16 07:35:51;;;;;;;;;;;;;;;14.81;100.00;100091.41;5001006;28;20417;-81
2023/10/16 07:38:20;;;;;;;;;;;;;;;14.82;100.00;100077.16;5002215;28;19948;-80
2023/10/16 07:40:52;;;;;;;;;;;;;;;14.88;100.00;100079.19;5000838;28;19961;-79
2023/10/16 07:43:27;;;;;;;;;;;;;;;14.91;100.00;100070.88;4984367;28;20079;-79
2023/10/16 07:46:19;;;;;;;;;;;;;;;14.91;100.00;100076.19;5001191;28;19936;-78
2023/10/16 07:48:51;;;;;;;;;;;;;;;14.86;100.00;100089.13;4980604;28;20318;-78
2023/10/16 07:51:20;;;;;;;;;;;;;;;14.87;100.00;100080.16;5001204;28;19937;-79
2023/10/16 07:53:45;;;;;;;;;;;;;;;14.88;100.00;100084.50;4997093;28;19929;-80
2023/10/16 07:56:25;;;;;;;;;;;;;;;14.90;100.00;100087.00;5003727;28;19929;-80
2023/10/16 07:59:06;;;;;;;;;;;;;;;14.89;100.00;100091.47;5000759;28;19984;-79
2023/10/16 08:01:52;;;;;;;;;;;;;;;14.92;100.00;100088.50;5000357;28;19933;-80
2023/10/16 08:06:52;;;;;;;;;;;;;;;15.03;100.00;100084.72;5004238;28;19929;-81
2023/10/16 08:11:57;;;;;;;;;;;;;;;15.06;100.00;100090.56;5000845;28;19937;-80
2023/10/16 08:14:26;;;;;;;;;;;;;;;15.09;100.00;100090.25;5001259;28;19929;-80
2023/10/16 08:17:04;;;;;;;;;;;;;;;15.13;100.00;100094.28;4999200;28;19929;-80
2023/10/16 08:19:34;;;;;;;;;;;;;;;15.04;100.00;100097.84;5000905;28;19945;-79
2023/10/16 08:22:02;;;;;;;;;;;;;;;15.04;100.00;100097.84;5003261;28;19964;-80
2023/10/16 08:24:28;;;;;;;;;;;;;;;15.04;100.00;100097.84;5002608;28;19999;-79
2023/10/16 08:27:07;;;;;;;;;;;;;;;15.07;100.00;100094.91;5009176;28;20418;-79
2023/10/16 08:29:37;;;;;;;;;;;;;;;15.05;100.00;100102.19;5005675;28;20400;-80
2023/10/16 08:34:46;;;;;;;;;;;;;;;15.00;100.00;100112.47;5006208;28;19922;-78
2023/10/16 08:37:13;;;;;;;;;;;;;;;15.02;100.00;100107.81;5003638;28;19951;-79
2023/10/16 08:39:44;;;;;;;;;;;;;;;15.02;100.00;100105.16;5003657;28;19933;-79
2023/10/16 08:42:18;;;;;;;;;;;;;;;15.02;100.00;100109.66;5006957;28;20329;-80
2023/10/16 08:45:14;;;;;;;;;;;;;;;15.07;100.00;100102.88;5004430;28;21449;-79
2023/10/16 08:47:42;;;;;;;;;;;;;;;15.08;100.00;100101.84;5004329;28;19929;-79
2023/10/16 08:50:17;;;;;;;;;;;;;;;15.13;100.00;100107.56;5006347;28;19937;-79
2023/10/16 08:52:49;;;;;;;;;;;;;;;15.14;100.00;100111.84;4990163;28;19965;-79
2023/10/16 08:55:15;;;;;;;;;;;;;;;15.14;100.00;100108.38;5002566;28;19936;-80
2023/10/16 08:57:41;;;;;;;;;;;;;;;15.14;100.00;100108.38;5001564;28;19925;-79
2023/10/16 09:00:14;;;;;;;;;;;;;;;15.11;100.00;100108.69;5003853;28;19921;-78
2023/10/16 09:02:40;;;;;;;;;;;;;;;15.12;100.00;100108.53;5003715;28;19926;-80
2023/10/16 09:05:08;;;;;;;;;;;;;;;15.19;100.00;100099.94;5004110;28;20749;-79
2023/10/16 09:07:34;;;;;;;;;;;;;;;15.20;100.00;100098.94;5004935;28;19964;-79
2023/10/16 09:10:02;;;;;;;;;;;;;;;15.23;100.00;100095.97;5002091;28;19933;-79
2023/10/16 09:12:27;;;;;;;;;;;;;;;15.21;100.00;100097.94;5004988;28;20495;-80
2023/10/16 09:14:54;;;;;;;;;;;;;;;15.21;100.00;100098.78;5005161;28;20087;-80
2023/10/16 09:17:24;;;;;;;;;;;;;;;15.27;100.00;100097.28;5001567;28;20360;-77
2023/10/16 09:19:53;;;;;;;;;;;;;;;15.28;100.00;100093.66;5005542;28;19929;-77
2023/10/16 09:22:20;;;;;;;;;;;;;;;15.28;100.00;100093.66;5006353;28;20289;-78
2023/10/16 09:24:51;;;;;;;;;;;;;;;15.36;100.00;100099.00;5007010;28;19945;-79
2023/10/16 09:27:17;;;;;;;;;;;;;;;15.34;100.00;100099.16;5000662;28;19929;-79
2023/10/16 09:29:53;;;;;;;;;;;;;;;15.32;100.00;100105.63;5002152;28;19936;-79
2023/10/16 09:32:36;;;;;;;;;;;;;;;15.35;100.00;100100.84;5004970;28;20270;-78
2023/10/16 09:35:06;;;;;;;;;;;;;;;15.41;100.00;100108.19;5001844;28;19976;-79
2023/10/16 09:37:35;;;;;;;;;;;;;;;15.45;100.00;100106.00;5001315;28;19980;-79
2023/10/16 09:40:08;;;;;;;;;;;;;;;15.52;100.00;100096.44;5001113;28;19929;-78
2023/10/16 09:42:37;;;;;;;;;;;;;;;15.53;100.00;100103.44;5003469;28;20308;-79
2023/10/16 09:45:14;;;;;;;;;;;;;;;15.50;100.00;100107.19;5003649;28;20512;-79
2023/10/16 09:47:48;;;;;;;;;;;;;;;15.53;100.00;100104.25;5000657;28;20016;-76
2023/10/16 09:50:19;;;;;;;;;;;;;;;15.58;100.00;100101.13;5003428;28;20012;-79
2023/10/16 09:52:48;;;;;;;;;;;;;;;15.68;100.00;100107.13;5004067;28;19929;-80
2023/10/16 09:55:13;;;;;;;;;;;;;;;15.75;100.00;100102.81;5002964;28;19952;-79
2023/10/16 09:57:52;;;;;;;;;;;;;;;15.83;100.00;100099.34;5001205;28;19921;-78
2023/10/16 10:02:54;;;;;;;;;;;;;;;16.01;100.00;100101.88;5002771;28;20719;-79
2023/10/16 10:05:22;;;;;;;;;;;;;;;16.12;100.00;100106.88;5002593;28;19925;-76
2023/10/16 10:07:49;;;;;;;;;;;;;;;16.22;100.00;100092.41;5003649;28;20483;-78
2023/10/16 10:13:01;;;;;;;;;;;;;;;16.36;98.25;100097.09;5002628;28;19969;-79
2023/10/16 10:15:34;;;;;;;;;;;;;;;16.36;98.09;100090.91;5001119;28;19935;-79
2023/10/16 10:18:31;;;;;;;;;;;;;;;16.45;97.13;100095.22;4999688;28;19936;-79
2023/10/16 10:20:48;;;;;;;;;;;;;;;16.54;96.68;100088.09;5002407;28;19932;-79
2023/10/16 10:23:15;;;;;;;;;;;;;;;16.59;95.47;100086.59;5000597;28;20112;-79
2023/10/16 10:25:41;;;;;;;;;;;;;;;16.71;95.62;100090.59;4313925;28;10000711;-79
2023/10/16 10:28:28;;;;;;;;;;;;;;;16.74;94.48;100090.25;4997861;28;19972;-78
2023/10/16 10:30:55;;;;;;;;;;;;;;;16.56;93.55;100092.22;4987609;28;19984;-79
2023/10/16 10:33:42;;;;;;;;;;;;;;;16.51;94.03;100089.25;5000150;28;19929;-79
2023/10/16 10:36:30;;;;;;;;;;;;;;;16.53;93.85;100079.25;4999454;28;19936;-79
2023/10/16 10:39:20;;;;;;;;;;;;;;;16.58;93.89;100090.25;4995887;28;20453;-78
2023/10/16 10:41:47;;;;;;;;;;;;;;;16.61;92.78;100084.59;4998605;28;19930;-79
2023/10/16 10:44:14;;;;;;;;;;;;;;;16.58;92.89;100084.91;4999819;28;19988;-78
2023/10/16 10:46:49;;;;;;;;;;;;;;;16.58;91.87;100079.56;5001830;28;19929;-78
2023/10/16 10:49:17;;;;;;;;;;;;;;;16.53;91.76;100076.59;5000974;28;20023;-79
2023/10/16 10:51:45;;;;;;;;;;;;;;;16.60;92.72;100082.13;4998658;28;20230;-78
2023/10/16 10:54:14;;;;;;;;;;;;;;;16.67;91.70;100073.25;4998264;28;19928;-78
2023/10/16 10:56:47;;;;;;;;;;;;;;;16.71;90.81;100073.78;5000288;28;19952;-79
2023/10/16 10:59:34;;;;;;;;;;;;;;;16.65;88.41;100069.94;5020809;28;20007;-78
2023/10/16 11:02:09;;;;;;;;;;;;;;;16.70;89.14;100059.59;5014362;28;19972;-78
2023/10/16 11:04:35;;;;;;;;;;;;;;;16.82;89.43;100059.25;5020406;28;19921;-79
2023/10/16 11:07:11;;;;;;;;;;;;;;;16.81;88.90;100057.56;4325927;28;10000716;-79
2023/10/16 11:09:37;;;;;;;;;;;;;;;16.76;86.95;100053.59;5016336;28;19932;-78
2023/10/16 11:12:02;;;;;;;;;;;;;;;16.86;87.77;100052.56;5023506;28;19922;-78
2023/10/16 11:14:35;;;;;;;;;;;;;;;16.91;87.12;100058.22;5022662;28;20015;-78
2023/10/16 11:17:00;;;;;;;;;;;;;;;17.03;87.18;100056.84;5020464;28;19930;-79
2023/10/16 11:19:29;;;;;;;;;;;;;;;16.98;85.61;100051.19;5022468;28;19995;-78
2023/10/16 11:21:56;;;;;;;;;;;;;;;17.05;85.57;100052.19;5019944;28;19921;-78
2023/10/16 11:24:24;;;;;;;;;;;;;;;17.16;85.86;100049.13;5022260;28;20242;-79
2023/10/16 11:26:51;;;;;;;;;;;;;;;17.19;85.00;100046.97;5020746;28;19921;-78
2023/10/16 11:29:19;;;;;;;;;;;;;;;17.20;84.55;100039.78;5022703;28;19925;-78
2023/10/16 11:31:44;;;;;;;;;;;;;;;17.08;84.85;100049.19;5004701;28;19921;-78
2023/10/16 11:34:12;;;;;;;;;;;;;;;17.10;85.42;100032.00;5018638;28;20024;-78
2023/10/16 11:36:39;;;;;;;;;;;;;;;17.06;85.71;100036.00;5020272;28;20017;-78
2023/10/16 11:39:07;;;;;;;;;;;;;;;17.04;85.67;100031.84;5025583;28;20423;-79
2023/10/16 11:41:36;;;;;;;;;;;;;;;17.00;85.72;100035.88;5016826;28;19929;-77
2023/10/16 11:44:05;;;;;;;;;;;;;;;17.02;88.16;100025.88;5012112;28;20018;-79
2023/10/16 11:46:34;;;;;;;;;;;;;;;17.09;87.25;100034.81;5004387;28;19960;-79
2023/10/16 11:51:48;;;;;;;;;;;;;;;17.09;86.86;100034.81;5010954;28;19944;-80
2023/10/16 11:54:20;;;;;;;;;;;;;;;17.09;86.58;100026.81;5019616;28;20280;-81
2023/10/16 11:56:55;;;;;;;;;;;;;;;17.06;84.48;100027.19;5023130;28;20228;-83
2023/10/16 11:59:21;;;;;;;;;;;;;;;17.07;84.85;100023.50;5024470;28;19921;-82
2023/10/16 12:01:50;;;;;;;;;;;;;;;17.08;85.08;100017.19;5004379;28;19922;-82
2023/10/16 12:04:17;;;;;;;;;;;;;;;17.10;85.67;100004.50;5031141;28;20071;-81
2023/10/16 12:06:44;;;;;;;;;;;;;;;17.12;84.85;100007.81;5027437;28;20282;-82
2023/10/16 12:09:13;;;;;;;;;;;;;;;17.17;85.06;100000.13;5031142;28;20380;-82
2023/10/16 12:11:38;;;;;;;;;;;;;;;17.10;84.38;99993.81;5011657;28;20416;-83
2023/10/16 12:14:07;;;;;;;;;;;;;;;16.96;83.78;99986.56;5025408;28;19921;-81
2023/10/16 12:16:34;;;;;;;;;;;;;;;16.83;85.62;99991.63;5033167;28;19980;-81
2023/10/16 12:19:00;;;;;;;;;;;;;;;16.74;86.08;99990.81;5026081;28;19965;-79
2023/10/16 12:21:28;;;;;;;;;;;;;;;16.73;86.42;99987.31;5027940;28;19949;-79
2023/10/16 12:23:53;;;;;;;;;;;;;;;16.79;87.49;99983.94;5026751;28;19925;-80
2023/10/16 12:26:19;;;;;;;;;;;;;;;16.85;88.07;99978.97;5027231;28;20369;-81
2023/10/16 12:28:44;;;;;;;;;;;;;;;16.94;87.04;99969.91;5027398;28;19995;-80
2023/10/16 12:31:10;;;;;;;;;;;;;;;17.04;87.22;99973.19;5026435;28;19928;-80
2023/10/16 12:33:37;;;;;;;;;;;;;;;17.13;87.48;99972.16;5029793;28;19925;-80
2023/10/16 12:36:07;;;;;;;;;;;;;;;17.06;85.52;99972.03;5023638;28;19975;-80
2023/10/16 12:38:33;;;;;;;;;;;;;;;17.14;85.78;99968.50;5022351;28;19922;-80
2023/10/16 12:40:59;;;;;;;;;;;;;;;17.16;83.81;99966.47;5027824;28;20016;-81
2023/10/16 12:43:28;;;;;;;;;;;;;;;17.31;82.84;99963.91;5026698;28;19925;-81
2023/10/16 12:45:56;;;;;;;;;;;;;;;17.41;83.25;99953.81;5010010;28;20162;-81
2023/10/16 12:48:22;;;;;;;;;;;;;;;17.53;83.36;99957.75;5027316;28;19921;-81
2023/10/16 12:50:48;;;;;;;;;;;;;;;17.53;82.08;99963.06;5023089;28;19922;-81
2023/10/16 12:53:17;;;;;;;;;;;;;;;17.53;80.91;99961.25;5024063;28;19917;-81
2023/10/16 12:55:49;;;;;;;;;;;;;;;17.62;80.58;99963.84;5024184;28;19928;-80
2023/10/16 12:58:14;;;;;;;;;;;;;;;17.62;80.14;99959.34;5022862;28;20286;-81
2023/10/16 13:00:40;;;;;;;;;;;;;;;17.66;80.75;99968.69;5024528;28;19917;-80
2023/10/16 13:03:13;;;;;;;;;;;;;;;17.65;78.84;99956.34;5021555;28;20451;-81
2023/10/16 13:05:42;;;;;;;;;;;;;;;17.71;79.86;99950.28;5024520;28;19921;-81
2023/10/16 13:08:08;;;;;;;;;;;;;;;17.63;79.69;99945.00;5004076;28;20016;-80
2023/10/16 13:10:33;;;;;;;;;;;;;;;17.67;79.03;99946.31;5023372;28;20444;-81
2023/10/16 13:13:00;;;;;;;;;;;;;;;17.68;79.93;99944.47;5024577;28;19921;-80
2023/10/16 13:15:29;;;;;;;;;;;;;;;17.64;79.78;99945.84;5021864;28;20020;-81
2023/10/16 13:17:55;;;;;;;;;;;;;;;17.36;81.34;99941.03;5024328;28;19956;-81
2023/10/16 13:20:20;;;;;;;;;;;;;;;17.36;81.80;99941.03;5022637;28;19921;-81
2023/10/16 13:22:49;;;;;;;;;;;;;;;17.41;80.46;99949.31;5006142;28;19925;-80
2023/10/16 13:25:15;;;;;;;;;;;;;;;17.49;80.65;99946.59;5022019;28;20028;-81
2023/10/16 13:27:40;;;;;;;;;;;;;;;17.55;80.72;99937.84;5023969;28;20432;-81
2023/10/16 13:30:11;;;;;;;;;;;;;;;17.57;79.64;99943.84;5021787;28;19960;-84
2023/10/16 13:32:42;;;;;;;;;;;;;;;17.45;80.19;99942.59;5027206;28;20029;-83
2023/10/16 13:35:12;;;;;;;;;;;;;;;17.47;81.07;99943.28;5019663;28;19921;-83
2023/10/16 13:37:39;;;;;;;;;;;;;;;17.44;79.89;99948.94;5023918;28;19926;-82
2023/10/16 13:40:04;;;;;;;;;;;;;;;17.37;80.22;99937.34;5007558;28;19921;-83
2023/10/16 13:42:30;;;;;;;;;;;;;;;17.36;81.17;99935.69;5021084;28;19928;-83
2023/10/16 13:44:55;;;;;;;;;;;;;;;17.29;80.71;99936.56;5024528;28;20448;-83
2023/10/16 13:47:21;;;;;;;;;;;;;;;17.31;81.89;99932.72;5004664;28;20392;-82
2023/10/16 13:49:47;;;;;;;;;;;;;;;17.29;80.53;99926.72;5021704;28;19964;-83
2023/10/16 13:52:14;;;;;;;;;;;;;;;17.29;81.73;99918.72;5020439;28;19921;-83
2023/10/16 13:54:40;;;;;;;;;;;;;;;17.25;80.78;99917.41;5019477;28;19976;-82
2023/10/16 13:57:07;;;;;;;;;;;;;;;17.29;81.42;99913.38;5021990;28;20016;-82
2023/10/16 13:59:33;;;;;;;;;;;;;;;17.29;81.57;99910.72;5021480;28;19971;-82
2023/10/16 14:02:01;;;;;;;;;;;;;;;17.31;82.23;99911.38;5021611;28;19933;-84
2023/10/16 14:04:32;;;;;;;;;;;;;;;17.34;82.15;99911.00;5022058;28;19933;-79
2023/10/16 14:06:58;;;;;;;;;;;;;;;17.34;81.21;99916.34;5021234;28;19921;-77
2023/10/16 14:09:32;;;;;;;;;;;;;;;17.34;81.13;99905.69;5023004;28;19921;-79
2023/10/16 14:11:58;;;;;;;;;;;;;;;17.37;81.51;99907.16;5022048;28;19921;-79
2023/10/16 14:14:25;;;;;;;;;;;;;;;17.32;80.78;99907.69;5021279;28;19936;-79
2023/10/16 14:16:52;;;;;;;;;;;;;;;17.33;81.28;99909.34;5025759;28;19921;-79
2023/10/16 14:19:27;;;;;;;;;;;;;;;17.33;82.32;99912.00;5021746;28;19925;-78
2023/10/16 14:21:54;;;;;;;;;;;;;;;17.27;81.90;99910.06;5022088;28;20382;-79
2023/10/16 14:24:22;;;;;;;;;;;;;;;17.22;81.75;99907.09;5023175;28;19921;-79
2023/10/16 14:26:49;;;;;;;;;;;;;;;17.24;82.27;99899.75;5023415;28;19948;-79
2023/10/16 14:29:15;;;;;;;;;;;;;;;17.23;82.44;99900.75;5021627;28;20038;-80
2023/10/16 14:31:42;;;;;;;;;;;;;;;17.22;81.66;99896.41;5020839;28;20329;-80
2023/10/16 14:34:08;;;;;;;;;;;;;;;17.18;82.07;99900.47;5021179;28;19925;-81
2023/10/16 14:36:33;;;;;;;;;;;;;;;17.16;82.81;99897.13;5007302;28;20284;-80
2023/10/16 14:39:04;;;;;;;;;;;;;;;17.09;82.62;99897.00;5002562;28;19928;-79
2023/10/16 14:41:30;;;;;;;;;;;;;;;17.10;83.24;99896.00;5020375;28;19921;-82
2023/10/16 14:43:55;;;;;;;;;;;;;;;17.04;83.67;99891.38;5022824;28;20028;-81
2023/10/16 14:46:22;;;;;;;;;;;;;;;16.90;83.78;99885.97;5019138;28;20234;-79
2023/10/16 14:48:47;;;;;;;;;;;;;;;16.94;84.59;99893.44;5020654;28;19968;-78
2023/10/16 14:51:14;;;;;;;;;;;;;;;16.93;84.42;99890.94;5022506;28;19925;-78
2023/10/16 14:53:40;;;;;;;;;;;;;;;16.90;84.16;99893.97;5019093;28;19917;-80